Time;durP1;ratioP1;P1;durP2;ratioP2;P2;SDS_P1;SDS_P2;PMS_P1;PMS_P2;Temp;Humidity;BMP_temperature;BMP_pressure;BME280_temperature;BME280_humidity;BME280_pressure;Samples;Min_cycle;Max_cycle;Signal;HPM_P1;HPM_P2
2021/12/27 00:01:12;;;;;;;17.38;11.27;;;;;;;2.73;83.76;100209.03;5105448;28;20044;-66
2021/12/27 00:03:40;;;;;;;18.27;11.93;;;;;;;2.74;83.78;100200.34;5087335;28;20134;-66
2021/12/27 00:06:09;;;;;;;17.75;11.63;;;;;;;2.75;83.75;100198.59;5083936;28;20103;-64
2021/12/27 00:08:40;;;;;;;17.63;10.98;;;;;;;2.77;83.64;100204.66;5086511;28;20052;-66
2021/12/27 00:11:13;;;;;;;18.27;11.38;;;;;;;2.79;83.59;100192.50;5084946;28;20049;-66
2021/12/27 00:13:41;;;;;;;18.80;11.45;;;;;;;2.80;83.57;100194.22;5087071;28;20047;-67
2021/12/27 00:16:09;;;;;;;17.23;11.32;;;;;;;2.80;83.53;100189.00;5083663;28;20029;-69
2021/12/27 00:18:36;;;;;;;17.33;10.75;;;;;;;2.83;83.58;100180.31;5087208;28;20124;-70
2021/12/27 00:21:04;;;;;;;17.45;11.40;;;;;;;2.83;83.53;100183.78;5086977;28;20045;-65
2021/12/27 00:23:31;;;;;;;15.48;10.52;;;;;;;2.83;83.55;100178.59;5088097;28;20045;-66
2021/12/27 00:25:58;;;;;;;17.65;10.82;;;;;;;2.84;83.54;100185.50;5089786;28;20036;-67
2021/12/27 00:28:25;;;;;;;17.92;10.50;;;;;;;2.85;83.45;100181.16;5080352;28;20526;-68
2021/12/27 00:30:52;;;;;;;17.88;10.82;;;;;;;2.87;83.57;100179.41;5086192;28;20072;-68
2021/12/27 00:33:19;;;;;;;19.63;11.85;;;;;;;2.89;83.43;100175.06;5088532;28;20089;-68
2021/12/27 00:35:46;;;;;;;19.27;11.13;;;;;;;2.89;83.37;100167.25;5093332;28;20048;-71
2021/12/27 00:38:12;;;;;;;15.95;10.32;;;;;;;2.91;83.29;100175.88;5086929;28;20814;-68
2021/12/27 00:40:39;;;;;;;15.80;10.45;;;;;;;2.92;83.29;100181.09;5089464;28;20041;-68
2021/12/27 00:43:07;;;;;;;16.23;10.63;;;;;;;2.94;83.43;100179.34;5088392;28;20057;-68
2021/12/27 00:45:34;;;;;;;15.52;9.60;;;;;;;2.95;83.36;100169.78;5083969;28;20048;-70
2021/12/27 00:48:01;;;;;;;17.77;10.65;;;;;;;2.97;83.36;100161.94;5090578;28;20147;-68
2021/12/27 00:50:28;;;;;;;17.38;11.32;;;;;;;2.98;83.42;100164.56;5088571;28;20048;-68
2021/12/27 00:52:55;;;;;;;16.73;10.52;;;;;;;2.99;83.66;100162.78;5088669;28;20052;-69
2021/12/27 00:55:22;;;;;;;16.10;10.60;;;;;;;2.99;83.27;100158.47;5091284;28;20139;-67
2021/12/27 00:57:52;;;;;;;17.17;10.38;;;;;;;2.99;83.51;100150.66;5090681;28;20043;-70
2021/12/27 01:00:22;;;;;;;17.65;11.05;;;;;;;3.00;83.30;100159.31;5086406;28;20048;-68
2021/12/27 01:02:49;;;;;;;18.65;10.60;;;;;;;3.01;83.47;100155.84;5089467;28;20059;-73
2021/12/27 01:05:17;;;;;;;17.20;10.80;;;;;;;2.99;83.37;100150.66;5090175;28;20053;-71
2021/12/27 01:07:44;;;;;;;16.88;10.82;;;;;;;2.99;83.63;100161.06;5084037;28;20486;-69
2021/12/27 01:13:01;;;;;;;16.00;10.30;;;;;;;3.00;83.52;100154.97;5088095;28;21831;-70
2021/12/27 01:18:00;;;;;;;15.02;9.95;;;;;;;3.02;83.59;100158.41;5087957;28;20052;-71
2021/12/27 01:20:27;;;;;;;14.98;9.98;;;;;;;3.03;83.62;100154.94;5091356;28;20111;-71
2021/12/27 01:22:54;;;;;;;16.92;10.15;;;;;;;3.05;83.54;100160.16;5091017;28;20118;-70
2021/12/27 01:25:22;;;;;;;15.75;9.90;;;;;;;3.06;83.59;100151.44;5091214;28;21113;-71
2021/12/27 01:27:52;;;;;;;17.33;10.77;;;;;;;3.05;83.63;100145.38;5095122;28;20045;-69
2021/12/27 01:30:20;;;;;;;15.57;10.50;;;;;;;3.06;83.65;100143.63;5089152;28;20045;-71
2021/12/27 01:32:56;;;;;;;17.35;10.63;;;;;;;3.06;83.54;100143.63;5089400;28;20040;-71
2021/12/27 01:35:24;;;;;;;17.13;10.20;;;;;;;3.07;83.57;100142.75;5086870;28;20056;-71
2021/12/27 01:37:52;;;;;;;16.77;9.82;;;;;;;3.07;83.70;100135.81;5092294;28;20059;-73
2021/12/27 01:40:27;;;;;;;15.52;10.10;;;;;;;3.06;83.66;100133.19;5087201;28;20040;-70
2021/12/27 01:43:20;;;;;;;16.98;10.20;;;;;;;3.05;83.87;100129.75;5089112;28;20045;-72
2021/12/27 01:45:56;;;;;;;17.27;9.65;;;;;;;3.03;83.93;100123.69;5089891;28;20045;-77
2021/12/27 01:48:29;;;;;;;16.88;10.32;;;;;;;3.04;83.79;100130.63;5095329;28;20044;-77
2021/12/27 01:50:59;;;;;;;17.23;10.18;;;;;;;3.04;83.87;100133.22;5095162;28;20151;-75
2021/12/27 01:53:30;;;;;;;16.45;10.32;;;;;;;3.06;83.79;100136.69;5088909;28;20044;-77
2021/12/27 01:55:57;;;;;;;18.05;10.35;;;;;;;3.07;83.76;100129.72;5096730;28;20048;-75
2021/12/27 01:58:25;;;;;;;15.48;9.90;;;;;;;3.09;83.90;100134.06;5092892;28;20063;-76
2021/12/27 02:00:56;;;;;;;16.63;9.93;;;;;;;3.11;84.15;100121.84;5094718;28;20561;-74
2021/12/27 02:03:29;;;;;;;19.25;11.18;;;;;;;3.11;83.93;100121.84;5088136;28;20048;-73
2021/12/27 02:05:57;;;;;;;16.60;10.63;;;;;;;3.11;83.98;100131.44;5083031;28;20044;-66
2021/12/27 02:08:25;;;;;;;17.23;10.77;;;;;;;3.11;84.01;100121.84;5085015;28;20037;-70
2021/12/27 02:10:51;;;;;;;17.33;10.65;;;;;;;3.12;84.10;100133.16;5085422;28;20478;-68
2021/12/27 02:13:19;;;;;;;15.98;10.32;;;;;;;3.12;84.18;100122.72;5089739;28;20079;-70
2021/12/27 02:15:46;;;;;;;15.60;10.15;;;;;;;3.14;84.29;100127.91;5087017;28;20044;-71
2021/12/27 02:18:13;;;;;;;16.77;10.25;;;;;;;3.16;84.22;100120.94;5085470;28;20056;-70
2021/12/27 02:20:43;;;;;;;17.17;10.90;;;;;;;3.17;84.20;100118.31;5092818;28;20435;-69
2021/12/27 02:23:16;;;;;;;17.92;10.77;;;;;;;3.20;84.13;100120.06;5091412;28;20115;-70
2021/12/27 02:25:49;;;;;;;18.20;10.90;;;;;;;3.22;83.97;100121.75;5093287;28;20048;-68
2021/12/27 02:28:19;;;;;;;16.00;9.88;;;;;;;3.23;84.13;100120.00;5082913;28;20060;-67
2021/12/27 02:30:52;;;;;;;16.30;10.38;;;;;;;3.23;84.39;100120.88;5085462;28;20043;-69
2021/12/27 02:33:18;;;;;;;16.10;9.98;;;;;;;3.22;84.30;100111.34;5084357;28;20762;-68
2021/12/27 02:35:50;;;;;;;18.80;10.93;;;;;;;3.24;84.35;100108.69;5088856;28;20055;-69
2021/12/27 02:38:25;;;;;;;17.83;11.27;;;;;;;3.25;84.26;100111.31;5088238;28;20047;-68
2021/12/27 02:40:52;;;;;;;15.95;10.80;;;;;;;3.26;84.18;100101.72;5089451;28;20045;-64
2021/12/27 02:43:23;;;;;;;19.48;11.65;;;;;;;3.26;84.36;100102.56;5092010;28;20044;-68
2021/12/27 02:46:04;;;;;;;17.33;10.90;;;;;;;3.29;84.35;100098.22;5091416;28;20041;-66
2021/12/27 02:48:39;;;;;;;18.30;11.48;;;;;;;3.30;84.47;100099.94;5091455;28;20049;-71
2021/12/27 02:51:08;;;;;;;17.65;10.98;;;;;;;3.30;84.48;100099.94;5091844;28;20052;-69
2021/12/27 02:53:35;;;;;;;18.23;11.63;;;;;;;3.31;84.28;100107.72;5089843;28;20485;-69
2021/12/27 02:56:05;;;;;;;18.23;10.93;;;;;;;3.32;84.36;100101.66;5082829;28;20514;-67
2021/12/27 02:58:33;;;;;;;17.80;11.32;;;;;;;3.34;84.49;100097.28;5083431;28;20056;-70
2021/12/27 03:01:10;;;;;;;17.73;11.50;;;;;;;3.35;84.56;100090.34;5091141;28;20040;-69
2021/12/27 03:03:38;;;;;;;17.98;11.45;;;;;;;3.35;84.48;100096.41;5087303;28;20071;-71
2021/12/27 03:06:06;;;;;;;20.85;11.88;;;;;;;3.35;84.57;100099.00;5090721;28;20045;-68
2021/12/27 03:08:35;;;;;;;19.27;11.95;;;;;;;3.36;84.63;100092.03;5089707;28;20045;-67
2021/12/27 03:11:04;;;;;;;18.52;11.60;;;;;;;3.36;84.70;100100.75;5091231;28;20341;-71
2021/12/27 03:13:36;;;;;;;17.98;11.52;;;;;;;3.38;84.60;100088.56;5088773;28;20048;-70
2021/12/27 03:16:11;;;;;;;18.83;12.25;;;;;;;3.39;84.71;100085.06;5089205;28;20044;-67
2021/12/27 03:18:42;;;;;;;19.30;12.27;;;;;;;3.40;84.61;100088.53;5088580;28;20049;-68
2021/12/27 03:21:10;;;;;;;18.35;11.38;;;;;;;3.43;84.65;100085.88;5088711;28;20059;-69
2021/12/27 03:23:40;;;;;;;16.85;11.23;;;;;;;3.45;84.55;100078.94;5088166;28;20049;-70
2021/12/27 03:26:08;;;;;;;16.42;11.50;;;;;;;3.47;84.68;100073.69;5083900;28;20041;-72
2021/12/27 03:28:37;;;;;;;19.00;12.23;;;;;;;3.47;84.56;100069.31;5086930;28;20044;-72
2021/12/27 03:31:07;;;;;;;17.05;11.45;;;;;;;3.49;84.52;100080.59;5083391;28;20080;-70
2021/12/27 03:33:35;;;;;;;19.45;12.02;;;;;;;3.51;84.58;100076.22;5089316;28;20106;-70
2021/12/27 03:36:05;;;;;;;19.52;12.15;;;;;;;3.51;84.50;100067.56;5085350;28;20048;-66
2021/12/27 03:38:43;;;;;;;18.23;11.90;;;;;;;3.50;84.67;100058.00;5087596;28;20053;-70
2021/12/27 03:41:17;;;;;;;19.77;12.32;;;;;;;3.46;84.77;100062.38;5085279;28;20052;-68
2021/12/27 03:43:44;;;;;;;18.40;11.70;;;;;;;3.45;84.71;100060.69;5087200;28;20048;-67
2021/12/27 03:46:11;;;;;;;17.75;12.35;;;;;;;3.47;84.72;100064.09;5086129;28;20036;-67
2021/12/27 03:48:38;;;;;;;17.75;11.77;;;;;;;3.47;84.83;100069.31;5087606;28;20127;-67
2021/12/27 03:51:06;;;;;;;18.25;11.95;;;;;;;3.48;84.82;100071.03;5084536;28;20052;-66
2021/12/27 03:53:34;;;;;;;18.17;11.98;;;;;;;3.51;84.83;100072.78;5087024;28;20147;-67
2021/12/27 03:56:03;;;;;;;19.05;12.15;;;;;;;3.51;84.81;100068.41;5086113;28;20491;-67
2021/12/27 03:58:34;;;;;;;19.35;11.85;;;;;;;3.53;84.70;100074.47;5084717;28;20055;-69
2021/12/27 04:03:30;;;;;;;16.30;11.10;;;;;;;3.55;84.69;100066.63;5086755;28;20506;-64
2021/12/27 04:05:58;;;;;;;18.10;11.75;;;;;;;3.55;84.77;100058.78;5086371;28;20041;-64
2021/12/27 04:08:26;;;;;;;18.10;12.27;;;;;;;3.56;84.73;100052.69;5089358;28;20787;-63
2021/12/27 04:10:55;;;;;;;18.83;12.10;;;;;;;3.57;84.78;100055.28;5090996;28;20052;-63
2021/12/27 04:13:23;;;;;;;16.95;11.55;;;;;;;3.57;84.70;100049.22;5089036;28;20056;-67
2021/12/27 04:15:51;;;;;;;18.90;12.55;;;;;;;3.59;84.70;100044.84;5093664;28;20049;-66
2021/12/27 04:18:18;;;;;;;16.45;11.32;;;;;;;3.58;84.67;100043.13;5090916;28;20043;-65
2021/12/27 04:20:45;;;;;;;17.30;12.05;;;;;;;3.59;84.69;100039.63;5089574;28;20064;-69
2021/12/27 04:23:13;;;;;;;17.98;11.68;;;;;;;3.60;84.70;100030.94;5097257;28;20148;-67
2021/12/27 04:25:41;;;;;;;18.33;12.68;;;;;;;3.60;84.77;100032.66;5092656;28;20040;-67
2021/12/27 04:28:08;;;;;;;17.23;11.77;;;;;;;3.59;84.93;100026.59;5096419;28;20053;-69
2021/12/27 04:30:35;;;;;;;21.63;12.20;;;;;;;3.59;84.71;100031.81;5093861;28;20045;-69
2021/12/27 04:33:04;;;;;;;18.45;12.05;;;;;;;3.59;84.79;100037.03;5092059;28;20056;-65
2021/12/27 04:35:32;;;;;;;18.73;11.85;;;;;;;3.61;84.78;100026.56;5085717;28;20051;-64
2021/12/27 04:37:59;;;;;;;19.95;11.82;;;;;;;3.61;84.83;100031.78;5091226;28;20049;-66
2021/12/27 04:40:30;;;;;;;18.75;12.30;;;;;;;3.62;84.98;100031.75;5090630;28;20050;-64
2021/12/27 04:43:07;;;;;;;17.40;11.68;;;;;;;3.63;85.06;100030.03;5083614;28;20056;-66
2021/12/27 04:45:34;;;;;;;18.65;11.93;;;;;;;3.64;85.00;100027.38;5088757;28;20051;-71
2021/12/27 04:48:01;;;;;;;16.73;11.10;;;;;;;3.65;85.00;100023.03;5088714;28;20041;-67
2021/12/27 04:50:29;;;;;;;17.38;11.50;;;;;;;3.66;84.98;100020.41;5086604;28;20048;-71
2021/12/27 04:52:56;;;;;;;18.52;11.88;;;;;;;3.69;84.96;100022.09;5087799;28;20063;-72
2021/12/27 04:55:26;;;;;;;16.02;10.55;;;;;;;3.71;84.82;100020.34;5089876;28;20048;-73
2021/12/27 04:57:54;;;;;;;15.77;11.23;;;;;;;3.71;84.85;100018.56;5088068;28;20055;-68
2021/12/27 05:00:21;;;;;;;16.33;11.13;;;;;;;3.73;84.99;100015.97;5090623;28;20048;-69
2021/12/27 05:02:48;;;;;;;16.98;11.25;;;;;;;3.73;84.99;100015.97;5087314;28;20044;-72
2021/12/27 05:05:15;;;;;;;16.08;11.10;;;;;;;3.75;84.87;100015.94;5086764;28;20052;-68
2021/12/27 05:07:44;;;;;;;20.25;11.68;;;;;;;3.75;84.97;100011.59;5088426;28;20048;-65
2021/12/27 05:10:11;;;;;;;16.42;11.25;;;;;;;3.77;84.87;100014.16;5086813;28;20049;-67
2021/12/27 05:12:38;;;;;;;17.02;10.90;;;;;;;3.78;84.87;100008.06;5087955;28;20084;-67
2021/12/27 05:15:05;;;;;;;16.35;10.75;;;;;;;3.78;85.14;100003.69;5088106;28;20041;-70
2021/12/27 05:17:32;;;;;;;16.15;11.20;;;;;;;3.78;85.14;100008.91;5089870;28;20049;-69
2021/12/27 05:19:59;;;;;;;19.77;11.52;;;;;;;3.79;85.15;99994.16;5087798;28;20625;-66
2021/12/27 05:22:26;;;;;;;20.45;12.13;;;;;;;3.80;85.20;99995.88;5087342;28;20056;-66
2021/12/27 05:24:53;;;;;;;18.38;11.60;;;;;;;3.80;85.24;99999.34;5090320;28;20055;-70
2021/12/27 05:27:19;;;;;;;17.92;11.07;;;;;;;3.80;85.16;99998.47;5087225;28;20108;-67
2021/12/27 05:30:08;;;;;;;18.67;11.18;;;;;;;3.81;85.22;99988.03;5089207;28;20044;-69
2021/12/27 05:32:35;;;;;;;18.67;12.02;;;;;;;3.83;85.31;99986.25;5090460;28;20063;-71
2021/12/27 05:35:04;;;;;;;19.25;11.18;;;;;;;3.85;85.21;99988.81;5083639;28;20057;-67
2021/12/27 05:37:32;;;;;;;17.08;10.52;;;;;;;3.86;85.47;99981.00;5083280;28;20053;-74
2021/12/27 05:40:04;;;;;;;20.33;12.32;;;;;;;3.88;85.42;99988.78;5085459;28;20049;-70
2021/12/27 05:42:36;;;;;;;16.65;11.55;;;;;;;3.90;85.19;99984.41;5088567;28;20093;-68
2021/12/27 05:45:06;;;;;;;18.58;11.82;;;;;;;3.92;85.24;99986.97;5078995;28;20142;-70
2021/12/27 05:47:33;;;;;;;18.80;11.32;;;;;;;3.92;85.27;99985.22;5086115;28;20045;-68
2021/12/27 05:50:00;;;;;;;17.83;11.23;;;;;;;3.94;85.27;99993.88;5087726;28;20878;-69
2021/12/27 05:52:27;;;;;;;18.20;11.20;;;;;;;3.94;85.20;99988.69;5086973;28;20068;-71
2021/12/27 05:54:53;;;;;;;19.42;11.30;;;;;;;3.97;85.33;99987.78;5088926;28;21868;-69
2021/12/27 05:57:20;;;;;;;16.75;11.20;;;;;;;3.98;85.51;99986.88;5089914;28;20056;-73
2021/12/27 05:59:47;;;;;;;17.23;10.95;;;;;;;3.99;85.40;99984.25;5089228;28;21002;-70
2021/12/27 06:02:14;;;;;;;17.40;10.68;;;;;;;3.99;85.38;99984.25;5090943;28;20561;-70
2021/12/27 06:04:42;;;;;;;16.70;11.32;;;;;;;4.01;85.44;99972.06;5087724;28;20052;-70
2021/12/27 06:07:08;;;;;;;20.73;11.80;;;;;;;4.01;85.25;99972.06;5083517;28;20047;-69
2021/12/27 06:09:35;;;;;;;19.13;11.50;;;;;;;4.02;85.48;99973.75;5089967;28;20066;-70
2021/12/27 06:12:02;;;;;;;18.20;11.20;;;;;;;4.02;85.39;99973.75;5090163;28;20064;-72
2021/12/27 06:14:29;;;;;;;21.50;13.20;;;;;;;4.02;85.67;99975.50;5088707;28;20060;-71
2021/12/27 06:16:56;;;;;;;17.42;11.23;;;;;;;4.04;85.51;99978.97;5089095;28;20056;-74
2021/12/27 06:19:22;;;;;;;16.98;10.70;;;;;;;4.05;85.50;99978.06;5092800;28;20055;-69
2021/12/27 06:21:51;;;;;;;17.63;11.32;;;;;;;4.07;85.46;99970.22;5087343;28;20041;-69
2021/12/27 06:24:17;;;;;;;18.20;11.10;;;;;;;4.08;85.66;99980.63;5088420;28;20045;-69
2021/12/27 06:26:45;;;;;;;15.30;10.15;;;;;;;4.10;85.57;99983.22;5089278;28;20045;-68
2021/12/27 06:29:12;;;;;;;16.00;10.45;;;;;;;4.11;85.63;99979.72;5085662;28;20055;-68
2021/12/27 06:31:39;;;;;;;15.23;10.68;;;;;;;4.12;85.56;99982.28;5086106;28;20040;-71
2021/12/27 06:34:06;;;;;;;17.15;10.52;;;;;;;4.13;85.50;99983.13;5090619;28;20553;-68
2021/12/27 06:36:32;;;;;;;15.63;10.52;;;;;;;4.16;85.45;99981.38;5091658;28;20402;-70
2021/12/27 06:39:00;;;;;;;16.77;10.60;;;;;;;4.17;85.50;99977.84;5093171;28;20044;-69
2021/12/27 06:41:27;;;;;;;14.40;10.10;;;;;;;4.18;85.67;99979.56;5093407;28;20556;-71
2021/12/27 06:43:54;;;;;;;15.55;10.35;;;;;;;4.20;85.48;99969.13;5084702;28;20056;-71
2021/12/27 06:46:21;;;;;;;16.40;10.43;;;;;;;4.21;85.69;99970.84;5091173;28;20049;-71
2021/12/27 06:48:48;;;;;;;14.25;10.15;;;;;;;4.24;85.51;99973.38;5084553;28;20049;-71
2021/12/27 06:51:15;;;;;;;16.77;10.05;;;;;;;4.27;85.53;99973.34;5087622;28;20057;-68
2021/12/27 06:53:42;;;;;;;16.08;10.13;;;;;;;4.30;85.53;99978.50;5090687;28;20052;-73
2021/12/27 06:56:09;;;;;;;16.55;10.55;;;;;;;4.30;85.60;99969.78;5090031;28;20052;-73
2021/12/27 06:58:36;;;;;;;17.95;10.57;;;;;;;4.30;85.54;99972.41;5087384;28;20045;-73
2021/12/27 07:01:04;;;;;;;15.55;10.88;;;;;;;4.32;85.58;99970.63;5090113;28;20044;-72
2021/12/27 07:03:31;;;;;;;16.85;10.65;;;;;;;4.33;85.56;99972.34;5090709;28;20474;-71
2021/12/27 07:05:57;;;;;;;15.60;10.48;;;;;;;4.36;85.49;99964.47;5088925;28;20143;-74
2021/12/27 07:08:24;;;;;;;15.50;10.10;;;;;;;4.37;85.53;99963.59;5092069;28;20045;-74
2021/12/27 07:10:51;;;;;;;15.43;10.40;;;;;;;4.39;85.42;99960.94;5091903;28;20049;-72
2021/12/27 07:13:18;;;;;;;16.92;10.82;;;;;;;4.40;85.43;99963.53;5092715;28;20045;-68
2021/12/27 07:15:45;;;;;;;16.10;10.02;;;;;;;4.40;85.39;99968.75;5106386;28;20578;-67
2021/12/27 07:18:20;;;;;;;19.67;10.80;;;;;;;4.39;85.40;99961.78;5084658;28;20045;-72
2021/12/27 07:20:47;;;;;;;16.73;10.77;;;;;;;4.38;85.40;99959.22;5089756;28;20126;-67
2021/12/27 07:23:14;;;;;;;15.07;10.00;;;;;;;4.37;85.65;99962.72;5084850;28;20348;-70
2021/12/27 07:25:41;;;;;;;17.23;10.43;;;;;;;4.36;85.60;99964.47;5089980;28;20553;-67
2021/12/27 07:28:08;;;;;;;15.23;10.10;;;;;;;4.34;85.59;99956.66;5081927;28;20522;-72
2021/12/27 07:30:35;;;;;;;16.50;10.50;;;;;;;4.34;85.72;99951.44;5090574;28;20049;-72
2021/12/27 07:33:02;;;;;;;14.43;9.32;;;;;;;4.34;85.72;99951.44;5079696;28;20049;-70
2021/12/27 07:35:28;;;;;;;15.57;10.10;;;;;;;4.34;85.79;99963.66;5082452;28;20536;-69
2021/12/27 07:37:55;;;;;;;16.73;9.95;;;;;;;4.32;85.76;99961.03;5083640;28;20072;-71
2021/12/27 07:40:25;;;;;;;15.27;9.98;;;;;;;4.32;85.64;99966.25;5093728;28;20079;-69
2021/12/27 07:42:52;;;;;;;16.40;10.07;;;;;;;4.35;85.69;99962.75;5092567;28;20048;-70
2021/12/27 07:45:19;;;;;;;14.85;10.05;;;;;;;4.37;85.85;99960.09;5076517;28;20120;-69
2021/12/27 07:47:46;;;;;;;14.82;9.70;;;;;;;4.39;85.96;99958.34;5084217;28;20087;-70
2021/12/27 07:50:13;;;;;;;15.23;9.75;;;;;;;4.41;85.80;99952.19;5092406;28;20044;-66
2021/12/27 07:52:41;;;;;;;16.60;9.80;;;;;;;4.42;85.75;99953.06;5092810;28;20245;-64
2021/12/27 07:55:09;;;;;;;13.73;9.10;;;;;;;4.43;85.89;99952.16;5090873;28;20048;-67
2021/12/27 07:57:36;;;;;;;12.95;8.75;;;;;;;4.46;85.90;99946.88;5086669;28;20056;-70
2021/12/27 08:00:08;;;;;;;12.77;8.73;;;;;;;4.51;85.91;99947.66;5086218;28;20057;-66
2021/12/27 08:02:37;;;;;;;15.80;9.55;;;;;;;4.50;85.66;99946.78;5092410;28;20056;-67
2021/12/27 08:05:05;;;;;;;12.85;8.65;;;;;;;4.48;85.55;99940.72;5089513;28;20037;-70
2021/12/27 08:07:32;;;;;;;13.88;8.57;;;;;;;4.47;85.63;99938.16;5092846;28;20049;-68
2021/12/27 08:09:59;;;;;;;15.43;8.63;;;;;;;4.48;85.86;99942.50;5093160;28;20059;-70
2021/12/27 08:12:25;;;;;;;12.48;8.55;;;;;;;4.49;85.71;99932.00;5082130;28;20497;-67
2021/12/27 08:14:52;;;;;;;15.35;8.98;;;;;;;4.53;85.56;99935.41;5091853;28;20048;-69
2021/12/27 08:17:19;;;;;;;13.82;8.82;;;;;;;4.56;85.52;99937.97;5086716;28;20053;-64
2021/12/27 08:19:47;;;;;;;12.07;8.18;;;;;;;4.57;85.44;99933.63;5092824;28;20509;-64
2021/12/27 08:22:14;;;;;;;13.05;8.45;;;;;;;4.58;85.24;99938.81;5091887;28;20127;-66
2021/12/27 08:24:41;;;;;;;15.15;9.27;;;;;;;4.61;85.32;99940.50;5093806;28;20443;-70
2021/12/27 08:27:07;;;;;;;11.43;7.50;;;;;;;4.64;85.32;99937.84;5090222;28;20102;-68
2021/12/27 08:29:34;;;;;;;12.38;7.70;;;;;;;4.66;85.21;99936.06;5091215;28;20053;-64
2021/12/27 08:32:02;;;;;;;10.50;7.15;;;;;;;4.66;85.04;99936.91;5092697;28;20498;-65
2021/12/27 08:34:31;;;;;;;11.98;7.97;;;;;;;4.67;85.07;99935.16;5088592;28;20163;-69
2021/12/27 08:36:59;;;;;;;11.48;8.40;;;;;;;4.66;84.94;99933.44;5086171;28;20047;-66
2021/12/27 08:39:26;;;;;;;16.40;10.25;;;;;;;4.65;nan;99935.19;5100253;28;20051;-64
2021/12/27 08:41:54;;;;;;;14.05;8.43;;;;;;;4.65;84.91;99934.34;5103221;27;20092;-66
2021/12/27 08:44:21;;;;;;;13.88;7.75;;;;;;;4.66;84.83;99938.66;5104387;27;20044;-65
2021/12/27 08:46:48;;;;;;;11.88;7.78;;;;;;;4.65;84.83;99940.41;5104369;28;20048;-65
2021/12/27 08:49:15;;;;;;;11.25;8.00;;;;;;;4.66;84.79;99934.28;5103532;28;20042;-65
2021/12/27 08:51:43;;;;;;;12.10;7.95;;;;;;;4.70;84.79;99937.69;5109283;27;20109;-66
2021/12/27 08:54:11;;;;;;;11.07;7.55;;;;;;;4.70;84.82;99927.25;5113112;27;20410;-70
2021/12/27 08:56:38;;;;;;;12.85;7.90;;;;;;;4.73;84.85;99932.41;5114383;27;20044;-65
2021/12/27 08:59:05;;;;;;;12.98;7.93;;;;;;;4.76;84.71;99934.97;5110556;27;20040;-64
2021/12/27 09:01:32;;;;;;;13.93;8.90;;;;;;;4.79;84.68;99926.22;5116385;27;20094;-69
2021/12/27 09:04:00;;;;;;;12.23;7.78;;;;;;;4.84;84.79;99928.72;5116362;28;20055;-67
2021/12/27 09:06:26;;;;;;;11.90;7.90;;;;;;;4.89;84.69;99937.31;5131451;27;20040;-71
2021/12/27 09:08:53;;;;;;;11.63;7.97;;;;;;;4.92;84.60;99942.47;5116183;28;20442;-66
2021/12/27 09:11:20;;;;;;;12.35;8.32;;;;;;;4.94;84.62;99938.94;5100593;27;20055;-69
2021/12/27 09:13:46;;;;;;;16.35;9.15;;;;;;;4.99;84.61;99931.00;5107903;27;20515;-68
2021/12/27 09:16:33;;;;;;;12.68;7.90;;;;;;;5.04;84.50;99928.28;5115839;28;20052;-68
2021/12/27 09:19:04;;;;;;;11.20;7.95;;;;;;;5.07;84.49;99926.47;5116965;27;20044;-68
2021/12/27 09:21:31;;;;;;;11.35;8.00;;;;;;;5.10;84.36;99923.78;5114336;28;20056;-68
2021/12/27 09:23:57;;;;;;;12.55;8.35;;;;;;;5.13;84.47;99930.72;5117086;28;20044;-70
2021/12/27 09:26:24;;;;;;;11.02;8.00;;;;;;;5.17;84.29;99923.66;5106342;27;20056;-66
2021/12/27 09:28:51;;;;;;;11.48;7.80;;;;;;;5.22;84.20;99929.63;5108462;28;20051;-69
2021/12/27 09:31:17;;;;;;;11.88;7.68;;;;;;;5.27;84.01;99935.63;5105294;28;20059;-69
2021/12/27 09:33:44;;;;;;;14.75;10.70;;;;;;;5.27;84.00;99938.25;5109783;28;20056;-65
2021/12/27 09:36:13;;;;;;;11.90;8.05;;;;;;;5.29;84.13;99929.47;5115874;27;20072;-70
2021/12/27 09:38:40;;;;;;;10.30;7.40;;;;;;;5.32;84.03;99907.63;5106262;28;20055;-68
2021/12/27 09:41:07;;;;;;;12.25;8.13;;;;;;;5.37;83.97;99910.13;5111294;28;20048;-65
2021/12/27 09:43:37;;;;;;;12.43;8.38;;;;;;;5.38;83.89;99901.38;5108096;27;20470;-67
2021/12/27 09:46:04;;;;;;;11.23;7.82;;;;;;;5.43;83.80;99905.59;5105054;28;20044;-66
2021/12/27 09:48:30;;;;;;;14.25;8.07;;;;;;;5.47;83.77;99909.00;5104973;28;20121;-67
2021/12/27 09:50:58;;;;;;;12.95;7.78;;;;;;;5.51;83.77;99904.56;5110950;28;20048;-67
2021/12/27 09:53:25;;;;;;;18.88;14.68;;;;;;;5.57;83.72;99909.66;5103247;28;20048;-70
2021/12/27 09:56:10;;;;;;;12.98;8.55;;;;;;;5.59;83.71;99900.88;5106895;28;20102;-66
2021/12/27 09:58:39;;;;;;;13.00;9.65;;;;;;;5.62;83.76;99899.09;5106784;28;20080;-67
2021/12/27 10:01:07;;;;;;;21.13;16.98;;;;;;;5.66;83.67;99908.53;5106641;28;20052;-68
2021/12/27 10:03:56;;;;;;;12.95;9.65;;;;;;;5.72;83.66;99911.03;5104932;28;20044;-66
2021/12/27 10:06:27;;;;;;;27.58;20.08;;;;;;;5.74;83.61;99915.31;5101519;27;20048;-69
2021/12/27 10:08:57;;;;;;;12.75;10.02;;;;;;;5.77;83.55;99911.75;5107363;28;20502;-66
2021/12/27 10:11:34;;;;;;;16.88;10.50;;;;;;;5.78;83.64;99913.47;5112314;27;20048;-64
2021/12/27 10:14:18;;;;;;;13.27;9.57;;;;;;;5.83;83.49;99895.06;5104888;28;20044;-67
2021/12/27 10:16:48;;;;;;;15.07;9.05;;;;;;;5.87;83.31;99889.69;5114293;28;20114;-67
2021/12/27 10:19:19;;;;;;;16.25;12.15;;;;;;;5.90;83.26;99888.78;5109915;27;20047;-65
2021/12/27 10:21:51;;;;;;;12.60;7.65;;;;;;;5.94;83.25;99895.63;5107688;28;20111;-67
2021/12/27 10:24:29;;;;;;;11.07;8.02;;;;;;;5.97;83.35;99890.31;5102775;28;20186;-65
2021/12/27 10:27:01;;;;;;;17.45;9.75;;;;;;;6.02;83.17;99890.25;5097111;28;20060;-64
2021/12/27 10:29:35;;;;;;;11.30;8.23;;;;;;;6.08;83.20;99874.34;5107765;27;20052;-64
2021/12/27 10:32:11;;;;;;;13.82;8.48;;;;;;;6.14;83.13;99882.06;5104350;27;20051;-68
2021/12/27 10:34:44;;;;;;;13.65;7.70;;;;;;;6.19;82.90;99863.63;5112131;28;20055;-71
2021/12/27 10:37:29;;;;;;;11.02;8.05;;;;;;;6.30;83.00;99858.06;5107739;28;20490;-69
2021/12/27 10:40:12;;;;;;;9.63;7.63;;;;;;;6.35;82.92;99859.66;5102006;28;20047;-65
2021/12/27 10:42:46;;;;;;;11.32;7.70;;;;;;;6.41;82.91;99863.84;5111713;27;20083;-70
2021/12/27 10:45:22;;;;;;;11.80;7.40;;;;;;;6.46;82.72;99856.72;5104930;28;20454;-65
2021/12/27 10:47:53;;;;;;;9.88;7.10;;;;;;;6.51;82.67;99854.00;5113359;27;20052;-66
2021/12/27 10:50:25;;;;;;;13.18;8.38;;;;;;;6.57;82.30;99845.06;5111998;27;20474;-65
2021/12/27 10:53:07;;;;;;;11.27;7.75;;;;;;;6.63;82.15;99839.66;5107156;27;20050;-69
2021/12/27 10:55:43;;;;;;;11.32;7.13;;;;;;;6.64;82.06;99833.53;5103562;27;20398;-68
2021/12/27 10:58:29;;;;;;;11.38;7.20;;;;;;;6.57;81.88;99827.59;5105695;28;20076;-70
2021/12/27 11:01:03;;;;;;;12.75;8.60;;;;;;;6.53;82.27;99825.97;5111796;27;20040;-69
2021/12/27 11:03:36;;;;;;;14.23;9.82;;;;;;;6.47;82.59;99823.53;5104404;28;20076;-68
2021/12/27 11:06:07;;;;;;;13.48;9.35;;;;;;;6.43;82.44;99829.75;5105310;28;20051;-68
2021/12/27 11:08:38;;;;;;;9.90;7.78;;;;;;;6.45;82.67;99847.16;5109402;27;20131;-66
2021/12/27 11:11:06;;;;;;;11.20;7.53;;;;;;;6.48;82.88;99851.44;5112392;28;20052;-65
2021/12/27 11:13:34;;;;;;;11.32;7.85;;;;;;;6.55;82.85;99847.75;5113593;27;20505;-65
2021/12/27 11:16:03;;;;;;;11.20;7.93;;;;;;;6.58;82.78;99850.28;5100772;27;20490;-65
2021/12/27 11:18:30;;;;;;;12.07;7.38;;;;;;;6.60;82.70;99845.84;5107186;27;20053;-66
2021/12/27 11:21:21;;;;;;;11.73;7.82;;;;;;;6.61;82.61;99850.19;5102453;28;20048;-65
2021/12/27 11:23:51;;;;;;;10.27;7.40;;;;;;;6.62;82.68;99844.03;5107648;28;20044;-65
2021/12/27 11:26:40;;;;;;;14.30;8.18;;;;;;;6.63;82.51;99840.50;5105645;27;20531;-66
2021/12/27 11:29:21;;;;;;;14.13;8.30;;;;;;;6.66;82.64;99844.81;5107669;27;20968;-65
2021/12/27 11:31:52;;;;;;;10.38;7.70;;;;;;;6.70;82.65;99838.56;5103099;28;20048;-65
2021/12/27 11:34:29;;;;;;;18.13;12.88;;;;;;;6.73;82.58;99835.88;5113039;27;20475;-65
2021/12/27 11:37:10;;;;;;;11.60;8.98;;;;;;;6.77;82.31;99834.84;5110857;28;20079;-65
2021/12/27 11:39:39;;;;;;;13.45;9.27;;;;;;;6.81;82.45;99820.75;5101755;27;20079;-67
2021/12/27 11:42:10;;;;;;;13.80;10.82;;;;;;;6.92;82.36;99814.31;5111295;28;20494;-65